sensor_id;sensor_type;location;lat;lon;timestamp;P1;durP1;ratioP1;P2;durP2;ratioP2
52414;SDS011;38340;52.964;6.086;2023-04-25T00:01:00;14.68;;;5.28;;
52414;SDS011;38340;52.964;6.086;2023-04-25T00:03:28;15.50;;;5.97;;
52414;SDS011;38340;52.964;6.086;2023-04-25T00:05:54;17.98;;;5.75;;
52414;SDS011;38340;52.964;6.086;2023-04-25T00:08:21;16.33;;;5.05;;
52414;SDS011;38340;52.964;6.086;2023-04-25T00:10:47;29.35;;;7.03;;
52414;SDS011;38340;52.964;6.086;2023-04-25T00:13:14;15.02;;;5.30;;
52414;SDS011;38340;52.964;6.086;2023-04-25T00:15:42;16.80;;;5.07;;
52414;SDS011;38340;52.964;6.086;2023-04-25T00:18:08;19.10;;;5.75;;
52414;SDS011;38340;52.964;6.086;2023-04-25T00:20:34;14.25;;;5.57;;
52414;SDS011;38340;52.964;6.086;2023-04-25T00:23:00;20.30;;;6.10;;
52414;SDS011;38340;52.964;6.086;2023-04-25T00:25:26;16.80;;;6.28;;
52414;SDS011;38340;52.964;6.086;2023-04-25T00:27:52;20.60;;;7.18;;
52414;SDS011;38340;52.964;6.086;2023-04-25T00:30:18;20.08;;;5.82;;
52414;SDS011;38340;52.964;6.086;2023-04-25T00:32:43;17.23;;;6.18;;
52414;SDS011;38340;52.964;6.086;2023-04-25T00:35:09;13.30;;;4.75;;
52414;SDS011;38340;52.964;6.086;2023-04-25T00:37:35;15.82;;;6.00;;
52414;SDS011;38340;52.964;6.086;2023-04-25T00:40:01;11.85;;;5.47;;
52414;SDS011;38340;52.964;6.086;2023-04-25T00:42:27;18.42;;;5.85;;
52414;SDS011;38340;52.964;6.086;2023-04-25T00:44:54;16.08;;;5.93;;
52414;SDS011;38340;52.964;6.086;2023-04-25T00:47:21;15.63;;;5.63;;
52414;SDS011;38340;52.964;6.086;2023-04-25T00:49:47;11.98;;;6.05;;
52414;SDS011;38340;52.964;6.086;2023-04-25T00:52:13;17.98;;;7.22;;
52414;SDS011;38340;52.964;6.086;2023-04-25T00:54:39;17.00;;;5.65;;
52414;SDS011;38340;52.964;6.086;2023-04-25T00:57:05;25.33;;;6.85;;
52414;SDS011;38340;52.964;6.086;2023-04-25T00:59:31;19.17;;;5.50;;
52414;SDS011;38340;52.964;6.086;2023-04-25T01:01:56;21.13;;;6.07;;
52414;SDS011;38340;52.964;6.086;2023-04-25T01:04:23;19.05;;;5.38;;
52414;SDS011;38340;52.964;6.086;2023-04-25T01:06:48;19.70;;;5.57;;
52414;SDS011;38340;52.964;6.086;2023-04-25T01:09:15;16.88;;;5.38;;
52414;SDS011;38340;52.964;6.086;2023-04-25T01:11:40;17.33;;;5.60;;
52414;SDS011;38340;52.964;6.086;2023-04-25T01:14:06;24.85;;;7.15;;
52414;SDS011;38340;52.964;6.086;2023-04-25T01:16:32;19.05;;;6.57;;
52414;SDS011;38340;52.964;6.086;2023-04-25T01:18:59;20.20;;;6.43;;
52414;SDS011;38340;52.964;6.086;2023-04-25T01:21:25;17.55;;;5.72;;
52414;SDS011;38340;52.964;6.086;2023-04-25T01:23:53;20.02;;;5.35;;
52414;SDS011;38340;52.964;6.086;2023-04-25T01:26:19;13.82;;;5.85;;
52414;SDS011;38340;52.964;6.086;2023-04-25T01:28:46;17.77;;;5.70;;
52414;SDS011;38340;52.964;6.086;2023-04-25T01:31:13;14.07;;;5.80;;
52414;SDS011;38340;52.964;6.086;2023-04-25T01:33:40;19.95;;;6.47;;
52414;SDS011;38340;52.964;6.086;2023-04-25T01:36:06;21.52;;;6.40;;
52414;SDS011;38340;52.964;6.086;2023-04-25T01:38:31;16.00;;;5.22;;
52414;SDS011;38340;52.964;6.086;2023-04-25T01:40:57;21.52;;;6.10;;
52414;SDS011;38340;52.964;6.086;2023-04-25T01:43:23;14.52;;;5.20;;
52414;SDS011;38340;52.964;6.086;2023-04-25T01:45:49;22.98;;;6.30;;
52414;SDS011;38340;52.964;6.086;2023-04-25T01:48:16;19.42;;;6.15;;
52414;SDS011;38340;52.964;6.086;2023-04-25T01:50:42;17.13;;;5.43;;
52414;SDS011;38340;52.964;6.086;2023-04-25T01:53:09;11.40;;;4.40;;
52414;SDS011;38340;52.964;6.086;2023-04-25T01:55:36;16.70;;;4.90;;
52414;SDS011;38340;52.964;6.086;2023-04-25T01:58:04;13.75;;;4.65;;
52414;SDS011;38340;52.964;6.086;2023-04-25T02:00:35;9.63;;;4.50;;
52414;SDS011;38340;52.964;6.086;2023-04-25T02:03:03;11.15;;;4.75;;
52414;SDS011;38340;52.964;6.086;2023-04-25T02:05:34;12.75;;;3.83;;
52414;SDS011;38340;52.964;6.086;2023-04-25T02:08:00;14.73;;;4.60;;
52414;SDS011;38340;52.964;6.086;2023-04-25T02:10:26;13.88;;;4.60;;
52414;SDS011;38340;52.964;6.086;2023-04-25T02:12:52;21.17;;;4.68;;
52414;SDS011;38340;52.964;6.086;2023-04-25T02:15:17;16.23;;;5.03;;
52414;SDS011;38340;52.964;6.086;2023-04-25T02:17:43;10.15;;;5.18;;
52414;SDS011;38340;52.964;6.086;2023-04-25T02:20:10;17.52;;;4.38;;
52414;SDS011;38340;52.964;6.086;2023-04-25T02:22:36;13.48;;;4.40;;
52414;SDS011;38340;52.964;6.086;2023-04-25T02:25:02;11.57;;;3.88;;
52414;SDS011;38340;52.964;6.086;2023-04-25T02:27:29;10.82;;;3.47;;
52414;SDS011;38340;52.964;6.086;2023-04-25T02:29:55;12.02;;;3.55;;
52414;SDS011;38340;52.964;6.086;2023-04-25T02:32:21;11.82;;;4.25;;
52414;SDS011;38340;52.964;6.086;2023-04-25T02:34:47;11.30;;;4.03;;
52414;SDS011;38340;52.964;6.086;2023-04-25T02:37:13;8.20;;;3.50;;
52414;SDS011;38340;52.964;6.086;2023-04-25T02:39:39;12.05;;;4.20;;
52414;SDS011;38340;52.964;6.086;2023-04-25T02:42:05;10.45;;;3.90;;
52414;SDS011;38340;52.964;6.086;2023-04-25T02:44:30;9.15;;;3.78;;
52414;SDS011;38340;52.964;6.086;2023-04-25T02:46:56;9.50;;;3.80;;
52414;SDS011;38340;52.964;6.086;2023-04-25T02:49:21;12.70;;;4.32;;
52414;SDS011;38340;52.964;6.086;2023-04-25T02:51:47;11.70;;;3.95;;
52414;SDS011;38340;52.964;6.086;2023-04-25T02:54:13;12.13;;;3.47;;
52414;SDS011;38340;52.964;6.086;2023-04-25T02:56:38;6.55;;;3.42;;
52414;SDS011;38340;52.964;6.086;2023-04-25T02:59:04;9.40;;;3.45;;
52414;SDS011;38340;52.964;6.086;2023-04-25T03:01:30;8.30;;;3.83;;
52414;SDS011;38340;52.964;6.086;2023-04-25T03:03:55;10.43;;;3.40;;
52414;SDS011;38340;52.964;6.086;2023-04-25T03:06:21;6.10;;;3.10;;
52414;SDS011;38340;52.964;6.086;2023-04-25T03:08:47;9.60;;;4.18;;
52414;SDS011;38340;52.964;6.086;2023-04-25T03:11:12;13.40;;;4.15;;
52414;SDS011;38340;52.964;6.086;2023-04-25T03:13:38;12.52;;;4.10;;
52414;SDS011;38340;52.964;6.086;2023-04-25T03:16:04;12.75;;;3.47;;
52414;SDS011;38340;52.964;6.086;2023-04-25T03:18:30;12.13;;;3.75;;
52414;SDS011;38340;52.964;6.086;2023-04-25T03:20:56;9.98;;;3.85;;
52414;SDS011;38340;52.964;6.086;2023-04-25T03:23:21;8.40;;;4.10;;
52414;SDS011;38340;52.964;6.086;2023-04-25T03:25:47;11.43;;;3.47;;
52414;SDS011;38340;52.964;6.086;2023-04-25T03:28:13;7.60;;;3.63;;
52414;SDS011;38340;52.964;6.086;2023-04-25T03:30:39;12.20;;;3.63;;
52414;SDS011;38340;52.964;6.086;2023-04-25T03:33:05;9.27;;;3.08;;
52414;SDS011;38340;52.964;6.086;2023-04-25T03:35:30;11.18;;;4.30;;
52414;SDS011;38340;52.964;6.086;2023-04-25T03:37:56;8.35;;;3.60;;
52414;SDS011;38340;52.964;6.086;2023-04-25T03:40:22;10.15;;;3.60;;
52414;SDS011;38340;52.964;6.086;2023-04-25T03:42:47;8.63;;;3.50;;
52414;SDS011;38340;52.964;6.086;2023-04-25T03:45:13;9.35;;;3.53;;
52414;SDS011;38340;52.964;6.086;2023-04-25T03:47:38;5.60;;;3.20;;
52414;SDS011;38340;52.964;6.086;2023-04-25T03:50:04;9.60;;;3.50;;
52414;SDS011;38340;52.964;6.086;2023-04-25T03:52:31;10.32;;;4.10;;
52414;SDS011;38340;52.964;6.086;2023-04-25T03:54:56;12.00;;;4.40;;
52414;SDS011;38340;52.964;6.086;2023-04-25T03:57:22;11.85;;;3.40;;
52414;SDS011;38340;52.964;6.086;2023-04-25T03:59:48;11.75;;;3.80;;
52414;SDS011;38340;52.964;6.086;2023-04-25T04:02:13;11.32;;;4.07;;
52414;SDS011;38340;52.964;6.086;2023-04-25T04:04:39;10.75;;;4.75;;
52414;SDS011;38340;52.964;6.086;2023-04-25T04:07:05;10.77;;;3.38;;
52414;SDS011;38340;52.964;6.086;2023-04-25T04:09:31;9.35;;;3.90;;
52414;SDS011;38340;52.964;6.086;2023-04-25T04:11:56;23.30;;;3.85;;
52414;SDS011;38340;52.964;6.086;2023-04-25T04:14:22;12.13;;;4.20;;
52414;SDS011;38340;52.964;6.086;2023-04-25T04:16:48;11.93;;;3.92;;
52414;SDS011;38340;52.964;6.086;2023-04-25T04:19:14;9.18;;;3.50;;
52414;SDS011;38340;52.964;6.086;2023-04-25T04:21:39;9.25;;;3.67;;
52414;SDS011;38340;52.964;6.086;2023-04-25T04:24:05;13.68;;;4.22;;
52414;SDS011;38340;52.964;6.086;2023-04-25T04:26:31;12.27;;;3.50;;
52414;SDS011;38340;52.964;6.086;2023-04-25T04:28:57;17.52;;;3.55;;
52414;SDS011;38340;52.964;6.086;2023-04-25T04:31:24;10.30;;;3.58;;
52414;SDS011;38340;52.964;6.086;2023-04-25T04:33:50;11.30;;;3.83;;
52414;SDS011;38340;52.964;6.086;2023-04-25T04:36:16;13.60;;;4.22;;
52414;SDS011;38340;52.964;6.086;2023-04-25T04:38:45;10.77;;;3.40;;
52414;SDS011;38340;52.964;6.086;2023-04-25T04:41:10;12.13;;;3.95;;
52414;SDS011;38340;52.964;6.086;2023-04-25T04:43:36;13.57;;;3.67;;
52414;SDS011;38340;52.964;6.086;2023-04-25T04:46:02;9.02;;;3.50;;
52414;SDS011;38340;52.964;6.086;2023-04-25T04:48:31;13.25;;;3.83;;
52414;SDS011;38340;52.964;6.086;2023-04-25T04:51:00;11.30;;;3.63;;
52414;SDS011;38340;52.964;6.086;2023-04-25T04:53:26;10.65;;;3.70;;
52414;SDS011;38340;52.964;6.086;2023-04-25T04:55:52;5.68;;;3.15;;
52414;SDS011;38340;52.964;6.086;2023-04-25T04:58:18;9.00;;;3.35;;
52414;SDS011;38340;52.964;6.086;2023-04-25T05:00:44;7.47;;;3.60;;
52414;SDS011;38340;52.964;6.086;2023-04-25T05:03:10;8.52;;;3.25;;
52414;SDS011;38340;52.964;6.086;2023-04-25T05:05:36;13.85;;;3.67;;
52414;SDS011;38340;52.964;6.086;2023-04-25T05:08:05;7.00;;;3.55;;
52414;SDS011;38340;52.964;6.086;2023-04-25T05:10:31;10.10;;;3.45;;
52414;SDS011;38340;52.964;6.086;2023-04-25T05:12:56;10.07;;;3.03;;
52414;SDS011;38340;52.964;6.086;2023-04-25T05:15:22;11.65;;;3.38;;
52414;SDS011;38340;52.964;6.086;2023-04-25T05:17:48;13.45;;;3.50;;
52414;SDS011;38340;52.964;6.086;2023-04-25T05:20:13;10.65;;;3.40;;
52414;SDS011;38340;52.964;6.086;2023-04-25T05:22:40;7.10;;;2.95;;
52414;SDS011;38340;52.964;6.086;2023-04-25T05:25:07;7.25;;;3.22;;
52414;SDS011;38340;52.964;6.086;2023-04-25T05:27:33;8.05;;;3.20;;
52414;SDS011;38340;52.964;6.086;2023-04-25T05:29:59;14.55;;;4.05;;
52414;SDS011;38340;52.964;6.086;2023-04-25T05:32:25;9.95;;;3.50;;
52414;SDS011;38340;52.964;6.086;2023-04-25T05:34:51;9.63;;;3.20;;
52414;SDS011;38340;52.964;6.086;2023-04-25T05:37:17;6.80;;;3.17;;
52414;SDS011;38340;52.964;6.086;2023-04-25T05:39:43;9.32;;;3.20;;
52414;SDS011;38340;52.964;6.086;2023-04-25T05:42:08;16.85;;;4.07;;
52414;SDS011;38340;52.964;6.086;2023-04-25T05:44:34;9.68;;;3.55;;
52414;SDS011;38340;52.964;6.086;2023-04-25T05:47:00;8.38;;;3.15;;
52414;SDS011;38340;52.964;6.086;2023-04-25T05:49:26;11.10;;;3.08;;
52414;SDS011;38340;52.964;6.086;2023-04-25T05:51:51;10.70;;;3.25;;
52414;SDS011;38340;52.964;6.086;2023-04-25T05:54:17;8.93;;;3.47;;
52414;SDS011;38340;52.964;6.086;2023-04-25T05:56:43;13.95;;;3.33;;
52414;SDS011;38340;52.964;6.086;2023-04-25T05:59:08;7.93;;;3.63;;
52414;SDS011;38340;52.964;6.086;2023-04-25T06:01:34;11.65;;;3.00;;
52414;SDS011;38340;52.964;6.086;2023-04-25T06:04:00;7.53;;;3.70;;
52414;SDS011;38340;52.964;6.086;2023-04-25T06:06:26;7.10;;;3.25;;
52414;SDS011;38340;52.964;6.086;2023-04-25T06:08:52;11.20;;;3.42;;
52414;SDS011;38340;52.964;6.086;2023-04-25T06:11:18;9.70;;;3.45;;
52414;SDS011;38340;52.964;6.086;2023-04-25T06:13:45;8.18;;;3.20;;
52414;SDS011;38340;52.964;6.086;2023-04-25T06:16:11;13.02;;;3.15;;
52414;SDS011;38340;52.964;6.086;2023-04-25T06:18:36;10.57;;;3.22;;
52414;SDS011;38340;52.964;6.086;2023-04-25T06:21:02;8.68;;;3.28;;
52414;SDS011;38340;52.964;6.086;2023-04-25T06:23:28;13.00;;;3.95;;
52414;SDS011;38340;52.964;6.086;2023-04-25T06:25:54;8.75;;;3.47;;
52414;SDS011;38340;52.964;6.086;2023-04-25T06:28:19;8.25;;;3.25;;
52414;SDS011;38340;52.964;6.086;2023-04-25T06:30:47;10.25;;;3.05;;
52414;SDS011;38340;52.964;6.086;2023-04-25T06:33:12;8.20;;;2.95;;
52414;SDS011;38340;52.964;6.086;2023-04-25T06:35:38;8.70;;;3.08;;
52414;SDS011;38340;52.964;6.086;2023-04-25T06:38:04;11.68;;;3.25;;
52414;SDS011;38340;52.964;6.086;2023-04-25T06:40:29;10.98;;;3.50;;
52414;SDS011;38340;52.964;6.086;2023-04-25T06:42:55;12.75;;;2.90;;
52414;SDS011;38340;52.964;6.086;2023-04-25T06:45:21;10.68;;;3.45;;
52414;SDS011;38340;52.964;6.086;2023-04-25T06:47:46;11.68;;;2.97;;
52414;SDS011;38340;52.964;6.086;2023-04-25T06:50:12;8.23;;;3.25;;
52414;SDS011;38340;52.964;6.086;2023-04-25T06:52:38;7.93;;;3.22;;
52414;SDS011;38340;52.964;6.086;2023-04-25T06:55:03;10.88;;;3.47;;
52414;SDS011;38340;52.964;6.086;2023-04-25T06:57:30;11.88;;;2.95;;
52414;SDS011;38340;52.964;6.086;2023-04-25T06:59:56;10.30;;;2.90;;
52414;SDS011;38340;52.964;6.086;2023-04-25T07:02:21;9.10;;;2.85;;
52414;SDS011;38340;52.964;6.086;2023-04-25T07:04:47;4.05;;;2.70;;
52414;SDS011;38340;52.964;6.086;2023-04-25T07:07:13;11.25;;;2.92;;
52414;SDS011;38340;52.964;6.086;2023-04-25T07:09:39;7.97;;;2.85;;
52414;SDS011;38340;52.964;6.086;2023-04-25T07:12:04;6.88;;;2.80;;
52414;SDS011;38340;52.964;6.086;2023-04-25T07:14:30;8.10;;;2.65;;
52414;SDS011;38340;52.964;6.086;2023-04-25T07:16:56;9.57;;;2.90;;
52414;SDS011;38340;52.964;6.086;2023-04-25T07:19:22;6.90;;;2.78;;
52414;SDS011;38340;52.964;6.086;2023-04-25T07:21:51;8.05;;;3.38;;
52414;SDS011;38340;52.964;6.086;2023-04-25T07:24:17;11.13;;;3.42;;
52414;SDS011;38340;52.964;6.086;2023-04-25T07:26:43;9.77;;;3.25;;
52414;SDS011;38340;52.964;6.086;2023-04-25T07:29:09;10.32;;;3.13;;
52414;SDS011;38340;52.964;6.086;2023-04-25T07:31:34;9.30;;;3.75;;
52414;SDS011;38340;52.964;6.086;2023-04-25T07:34:00;12.07;;;3.30;;
52414;SDS011;38340;52.964;6.086;2023-04-25T07:36:26;10.52;;;3.28;;
52414;SDS011;38340;52.964;6.086;2023-04-25T07:38:52;9.88;;;3.72;;
52414;SDS011;38340;52.964;6.086;2023-04-25T07:41:17;9.93;;;3.20;;
52414;SDS011;38340;52.964;6.086;2023-04-25T07:43:43;10.77;;;3.28;;
52414;SDS011;38340;52.964;6.086;2023-04-25T07:46:09;6.70;;;3.08;;
52414;SDS011;38340;52.964;6.086;2023-04-25T07:48:35;10.25;;;3.40;;
52414;SDS011;38340;52.964;6.086;2023-04-25T07:51:00;8.13;;;3.33;;
52414;SDS011;38340;52.964;6.086;2023-04-25T07:53:26;6.95;;;3.25;;
52414;SDS011;38340;52.964;6.086;2023-04-25T07:55:52;8.65;;;3.13;;
52414;SDS011;38340;52.964;6.086;2023-04-25T07:58:18;9.32;;;3.58;;
52414;SDS011;38340;52.964;6.086;2023-04-25T08:00:46;8.80;;;3.88;;
52414;SDS011;38340;52.964;6.086;2023-04-25T08:03:13;6.93;;;2.80;;
52414;SDS011;38340;52.964;6.086;2023-04-25T08:05:38;6.85;;;2.83;;
52414;SDS011;38340;52.964;6.086;2023-04-25T08:08:04;7.40;;;2.90;;
52414;SDS011;38340;52.964;6.086;2023-04-25T08:10:32;6.25;;;2.65;;
52414;SDS011;38340;52.964;6.086;2023-04-25T08:12:58;10.07;;;2.85;;
52414;SDS011;38340;52.964;6.086;2023-04-25T08:15:24;5.22;;;2.60;;
52414;SDS011;38340;52.964;6.086;2023-04-25T08:17:50;5.63;;;2.70;;
52414;SDS011;38340;52.964;6.086;2023-04-25T08:20:16;10.32;;;2.75;;
52414;SDS011;38340;52.964;6.086;2023-04-25T08:22:42;5.32;;;2.85;;
52414;SDS011;38340;52.964;6.086;2023-04-25T08:25:07;8.93;;;3.35;;
52414;SDS011;38340;52.964;6.086;2023-04-25T08:27:33;7.43;;;2.95;;
52414;SDS011;38340;52.964;6.086;2023-04-25T08:29:59;8.65;;;2.90;;
52414;SDS011;38340;52.964;6.086;2023-04-25T08:32:26;7.82;;;3.38;;
52414;SDS011;38340;52.964;6.086;2023-04-25T08:34:52;7.97;;;2.97;;
52414;SDS011;38340;52.964;6.086;2023-04-25T08:37:20;5.35;;;2.72;;
52414;SDS011;38340;52.964;6.086;2023-04-25T08:39:46;7.72;;;2.80;;
52414;SDS011;38340;52.964;6.086;2023-04-25T08:42:13;10.10;;;3.10;;
52414;SDS011;38340;52.964;6.086;2023-04-25T08:44:40;8.13;;;3.20;;
52414;SDS011;38340;52.964;6.086;2023-04-25T08:47:06;11.75;;;3.03;;
52414;SDS011;38340;52.964;6.086;2023-04-25T08:49:32;8.05;;;3.60;;
52414;SDS011;38340;52.964;6.086;2023-04-25T08:52:03;8.20;;;3.15;;
52414;SDS011;38340;52.964;6.086;2023-04-25T08:54:32;6.20;;;2.83;;
52414;SDS011;38340;52.964;6.086;2023-04-25T08:57:00;10.38;;;4.00;;
52414;SDS011;38340;52.964;6.086;2023-04-25T08:59:28;9.27;;;3.15;;
52414;SDS011;38340;52.964;6.086;2023-04-25T09:01:55;14.48;;;3.20;;
52414;SDS011;38340;52.964;6.086;2023-04-25T09:04:20;5.82;;;2.95;;
52414;SDS011;38340;52.964;6.086;2023-04-25T09:06:47;13.55;;;3.00;;
52414;SDS011;38340;52.964;6.086;2023-04-25T09:09:13;9.10;;;2.78;;
52414;SDS011;38340;52.964;6.086;2023-04-25T09:11:39;5.60;;;2.67;;
52414;SDS011;38340;52.964;6.086;2023-04-25T09:14:12;6.45;;;2.90;;
52414;SDS011;38340;52.964;6.086;2023-04-25T09:19:27;10.35;;;4.55;;
52414;SDS011;38340;52.964;6.086;2023-04-25T09:21:55;6.72;;;3.33;;
52414;SDS011;38340;52.964;6.086;2023-04-25T09:26:58;8.90;;;3.58;;
52414;SDS011;38340;52.964;6.086;2023-04-25T09:32:22;8.25;;;3.60;;
52414;SDS011;38340;52.964;6.086;2023-04-25T09:34:50;7.22;;;3.30;;
52414;SDS011;38340;52.964;6.086;2023-04-25T09:37:21;10.93;;;3.17;;
52414;SDS011;38340;52.964;6.086;2023-04-25T09:39:47;8.80;;;2.75;;
52414;SDS011;38340;52.964;6.086;2023-04-25T09:42:14;8.38;;;3.75;;
52414;SDS011;38340;52.964;6.086;2023-04-25T09:44:42;9.82;;;3.92;;
52414;SDS011;38340;52.964;6.086;2023-04-25T09:47:10;5.63;;;3.22;;
52414;SDS011;38340;52.964;6.086;2023-04-25T09:49:39;7.68;;;3.25;;
52414;SDS011;38340;52.964;6.086;2023-04-25T09:52:07;10.30;;;2.75;;
52414;SDS011;38340;52.964;6.086;2023-04-25T09:54:33;7.05;;;2.95;;
52414;SDS011;38340;52.964;6.086;2023-04-25T09:57:01;6.13;;;3.35;;
52414;SDS011;38340;52.964;6.086;2023-04-25T09:59:38;12.55;;;3.58;;
52414;SDS011;38340;52.964;6.086;2023-04-25T10:02:07;9.95;;;3.92;;
52414;SDS011;38340;52.964;6.086;2023-04-25T10:04:34;11.63;;;3.05;;
52414;SDS011;38340;52.964;6.086;2023-04-25T10:07:01;5.57;;;3.17;;
52414;SDS011;38340;52.964;6.086;2023-04-25T10:09:30;5.35;;;2.80;;
52414;SDS011;38340;52.964;6.086;2023-04-25T10:11:59;11.95;;;4.25;;
52414;SDS011;38340;52.964;6.086;2023-04-25T10:14:25;7.78;;;3.97;;
52414;SDS011;38340;52.964;6.086;2023-04-25T10:16:51;6.65;;;2.92;;
52414;SDS011;38340;52.964;6.086;2023-04-25T10:19:21;5.55;;;3.13;;
52414;SDS011;38340;52.964;6.086;2023-04-25T10:24:36;5.30;;;2.65;;
52414;SDS011;38340;52.964;6.086;2023-04-25T10:27:04;11.02;;;3.10;;
52414;SDS011;38340;52.964;6.086;2023-04-25T10:29:30;8.88;;;3.42;;
52414;SDS011;38340;52.964;6.086;2023-04-25T10:31:56;5.78;;;3.08;;
52414;SDS011;38340;52.964;6.086;2023-04-25T10:34:41;6.07;;;2.95;;
52414;SDS011;38340;52.964;6.086;2023-04-25T10:39:35;6.93;;;3.30;;
52414;SDS011;38340;52.964;6.086;2023-04-25T10:42:02;7.28;;;2.70;;
52414;SDS011;38340;52.964;6.086;2023-04-25T10:44:29;6.97;;;3.00;;
52414;SDS011;38340;52.964;6.086;2023-04-25T10:46:55;6.20;;;3.42;;
52414;SDS011;38340;52.964;6.086;2023-04-25T10:49:28;9.98;;;3.15;;
52414;SDS011;38340;52.964;6.086;2023-04-25T10:52:17;5.53;;;3.10;;
52414;SDS011;38340;52.964;6.086;2023-04-25T10:54:54;11.80;;;3.37;;
52414;SDS011;38340;52.964;6.086;2023-04-25T11:00:14;7.38;;;3.25;;
52414;SDS011;38340;52.964;6.086;2023-04-25T11:02:41;6.50;;;2.72;;
52414;SDS011;38340;52.964;6.086;2023-04-25T11:05:20;6.18;;;3.10;;
52414;SDS011;38340;52.964;6.086;2023-04-25T11:07:56;5.32;;;2.78;;
52414;SDS011;38340;52.964;6.086;2023-04-25T11:10:27;6.93;;;3.00;;
52414;SDS011;38340;52.964;6.086;2023-04-25T11:12:54;5.10;;;2.63;;
52414;SDS011;38340;52.964;6.086;2023-04-25T11:15:20;7.20;;;2.80;;
52414;SDS011;38340;52.964;6.086;2023-04-25T11:17:46;4.97;;;3.08;;
52414;SDS011;38340;52.964;6.086;2023-04-25T11:20:14;6.15;;;3.60;;
52414;SDS011;38340;52.964;6.086;2023-04-25T11:22:40;6.25;;;2.70;;
52414;SDS011;38340;52.964;6.086;2023-04-25T11:25:09;7.32;;;3.13;;
52414;SDS011;38340;52.964;6.086;2023-04-25T11:27:49;9.38;;;3.20;;
52414;SDS011;38340;52.964;6.086;2023-04-25T11:30:18;8.10;;;2.90;;
52414;SDS011;38340;52.964;6.086;2023-04-25T11:32:45;4.40;;;2.67;;
52414;SDS011;38340;52.964;6.086;2023-04-25T11:35:12;3.85;;;2.60;;
52414;SDS011;38340;52.964;6.086;2023-04-25T11:37:41;9.43;;;3.08;;
52414;SDS011;38340;52.964;6.086;2023-04-25T11:40:09;7.00;;;3.28;;
52414;SDS011;38340;52.964;6.086;2023-04-25T11:42:37;7.63;;;3.15;;
52414;SDS011;38340;52.964;6.086;2023-04-25T11:45:03;5.90;;;3.30;;
52414;SDS011;38340;52.964;6.086;2023-04-25T11:47:30;8.98;;;3.55;;
52414;SDS011;38340;52.964;6.086;2023-04-25T11:50:00;7.30;;;3.20;;
52414;SDS011;38340;52.964;6.086;2023-04-25T11:52:37;7.63;;;2.80;;
52414;SDS011;38340;52.964;6.086;2023-04-25T11:55:12;5.07;;;3.25;;
52414;SDS011;38340;52.964;6.086;2023-04-25T11:57:40;8.18;;;3.08;;
52414;SDS011;38340;52.964;6.086;2023-04-25T12:00:14;7.95;;;3.15;;
52414;SDS011;38340;52.964;6.086;2023-04-25T12:02:46;9.95;;;3.17;;
52414;SDS011;38340;52.964;6.086;2023-04-25T12:05:16;8.38;;;3.17;;
52414;SDS011;38340;52.964;6.086;2023-04-25T12:07:42;6.20;;;3.00;;
52414;SDS011;38340;52.964;6.086;2023-04-25T12:10:08;9.35;;;3.00;;
52414;SDS011;38340;52.964;6.086;2023-04-25T12:12:42;10.10;;;3.33;;
52414;SDS011;38340;52.964;6.086;2023-04-25T12:15:10;8.35;;;3.10;;
52414;SDS011;38340;52.964;6.086;2023-04-25T12:17:41;6.07;;;2.97;;
52414;SDS011;38340;52.964;6.086;2023-04-25T12:20:10;6.75;;;3.10;;
52414;SDS011;38340;52.964;6.086;2023-04-25T12:22:44;9.40;;;3.60;;
52414;SDS011;38340;52.964;6.086;2023-04-25T12:25:12;7.80;;;3.50;;
52414;SDS011;38340;52.964;6.086;2023-04-25T12:28:08;8.52;;;3.20;;
52414;SDS011;38340;52.964;6.086;2023-04-25T12:31:06;9.32;;;3.42;;
52414;SDS011;38340;52.964;6.086;2023-04-25T12:33:36;6.45;;;3.40;;
52414;SDS011;38340;52.964;6.086;2023-04-25T12:36:05;8.95;;;3.25;;
52414;SDS011;38340;52.964;6.086;2023-04-25T12:38:38;9.77;;;4.35;;
52414;SDS011;38340;52.964;6.086;2023-04-25T12:41:06;9.23;;;3.47;;
52414;SDS011;38340;52.964;6.086;2023-04-25T12:43:32;13.52;;;3.35;;
52414;SDS011;38340;52.964;6.086;2023-04-25T12:45:58;10.35;;;3.40;;
52414;SDS011;38340;52.964;6.086;2023-04-25T12:48:23;10.20;;;3.50;;
52414;SDS011;38340;52.964;6.086;2023-04-25T12:50:50;9.10;;;3.25;;
52414;SDS011;38340;52.964;6.086;2023-04-25T12:55:43;6.15;;;3.20;;
52414;SDS011;38340;52.964;6.086;2023-04-25T12:58:11;6.95;;;3.00;;
52414;SDS011;38340;52.964;6.086;2023-04-25T13:00:37;6.45;;;3.00;;
52414;SDS011;38340;52.964;6.086;2023-04-25T13:03:02;7.15;;;2.85;;
52414;SDS011;38340;52.964;6.086;2023-04-25T13:05:29;4.95;;;2.90;;
52414;SDS011;38340;52.964;6.086;2023-04-25T13:07:55;10.88;;;2.92;;
52414;SDS011;38340;52.964;6.086;2023-04-25T13:10:22;9.85;;;3.10;;
52414;SDS011;38340;52.964;6.086;2023-04-25T13:12:47;7.75;;;3.20;;
52414;SDS011;38340;52.964;6.086;2023-04-25T13:15:13;7.47;;;2.72;;
52414;SDS011;38340;52.964;6.086;2023-04-25T13:17:40;12.07;;;3.75;;
52414;SDS011;38340;52.964;6.086;2023-04-25T13:20:06;10.02;;;4.05;;
52414;SDS011;38340;52.964;6.086;2023-04-25T13:22:37;6.20;;;2.92;;
52414;SDS011;38340;52.964;6.086;2023-04-25T13:25:03;10.73;;;3.70;;
52414;SDS011;38340;52.964;6.086;2023-04-25T13:27:30;9.80;;;3.40;;
52414;SDS011;38340;52.964;6.086;2023-04-25T13:29:58;10.93;;;2.95;;
52414;SDS011;38340;52.964;6.086;2023-04-25T13:32:23;7.75;;;3.17;;
52414;SDS011;38340;52.964;6.086;2023-04-25T13:34:50;8.85;;;3.05;;
52414;SDS011;38340;52.964;6.086;2023-04-25T13:37:16;8.05;;;3.47;;
52414;SDS011;38340;52.964;6.086;2023-04-25T13:39:42;5.68;;;3.00;;
52414;SDS011;38340;52.964;6.086;2023-04-25T13:42:08;6.85;;;2.90;;
52414;SDS011;38340;52.964;6.086;2023-04-25T13:44:33;8.60;;;3.10;;
52414;SDS011;38340;52.964;6.086;2023-04-25T13:46:59;10.38;;;3.03;;
52414;SDS011;38340;52.964;6.086;2023-04-25T13:49:26;8.00;;;3.22;;
52414;SDS011;38340;52.964;6.086;2023-04-25T13:51:51;7.55;;;2.83;;
52414;SDS011;38340;52.964;6.086;2023-04-25T13:54:17;6.10;;;2.90;;
52414;SDS011;38340;52.964;6.086;2023-04-25T13:56:43;10.55;;;3.08;;
52414;SDS011;38340;52.964;6.086;2023-04-25T13:59:08;6.38;;;3.30;;
52414;SDS011;38340;52.964;6.086;2023-04-25T14:01:34;7.28;;;2.92;;
52414;SDS011;38340;52.964;6.086;2023-04-25T14:04:00;9.27;;;3.15;;
52414;SDS011;38340;52.964;6.086;2023-04-25T14:06:28;6.10;;;2.60;;
52414;SDS011;38340;52.964;6.086;2023-04-25T14:08:54;7.88;;;3.53;;
52414;SDS011;38340;52.964;6.086;2023-04-25T14:11:21;8.05;;;3.20;;
52414;SDS011;38340;52.964;6.086;2023-04-25T14:13:47;8.75;;;2.83;;
52414;SDS011;38340;52.964;6.086;2023-04-25T14:16:14;6.68;;;2.70;;
52414;SDS011;38340;52.964;6.086;2023-04-25T14:18:40;5.90;;;2.70;;
52414;SDS011;38340;52.964;6.086;2023-04-25T14:21:06;7.75;;;3.75;;
52414;SDS011;38340;52.964;6.086;2023-04-25T14:23:32;8.13;;;3.35;;
52414;SDS011;38340;52.964;6.086;2023-04-25T14:25:58;9.43;;;3.78;;
52414;SDS011;38340;52.964;6.086;2023-04-25T14:28:23;6.28;;;3.03;;
52414;SDS011;38340;52.964;6.086;2023-04-25T14:30:49;5.57;;;2.70;;
52414;SDS011;38340;52.964;6.086;2023-04-25T14:33:15;7.38;;;2.80;;
52414;SDS011;38340;52.964;6.086;2023-04-25T14:35:40;10.00;;;3.38;;
52414;SDS011;38340;52.964;6.086;2023-04-25T14:38:06;9.20;;;2.90;;
52414;SDS011;38340;52.964;6.086;2023-04-25T14:40:32;5.55;;;3.40;;
52414;SDS011;38340;52.964;6.086;2023-04-25T14:42:58;6.28;;;3.05;;
52414;SDS011;38340;52.964;6.086;2023-04-25T14:45:24;10.75;;;3.22;;
52414;SDS011;38340;52.964;6.086;2023-04-25T14:47:49;4.95;;;2.78;;
52414;SDS011;38340;52.964;6.086;2023-04-25T14:50:15;8.63;;;2.92;;
52414;SDS011;38340;52.964;6.086;2023-04-25T14:52:41;12.77;;;3.58;;
52414;SDS011;38340;52.964;6.086;2023-04-25T14:55:08;7.32;;;3.30;;
52414;SDS011;38340;52.964;6.086;2023-04-25T14:57:34;11.60;;;3.60;;